Apgar, Montana
Current Conditions -  °F | °C
As of 5:55 AM on Wednesday 22 Oct 2014 (Local Time) from KGPI Reporting Station
Clear Clear  
Wind Chill: 27°   Ceiling: Unl
Heat Index: 33°   Visibility: 10mi
Dew Point: 31°   Wind: 7mph
Humidity: 92%   Direction: 220°SW
Pressure: 30.02"   Gusts: NA
Location:  48.5033°N, 113.981°W
Report Text: KGPI 221155Z AUTO 22006KT 10SM CLR 01/M01 A3002 RMK AO2 SLP180 70018 T00061006 10072 20006 53006
Loading
Personal Weather Stations






























Interactive Weather Map New forecast layout! Learn more

10-Day Weather Forecast

Advertisements
Track Severe Weather on mobile